Time;durP1;ratioP1;P1;durP2;ratioP2;P2;SDS_P1;SDS_P2;PMS_P1;PMS_P2;Temp;Humidity;BMP_temperature;BMP_pressure;BME280_temperature;BME280_humidity;BME280_pressure;Samples;Min_cycle;Max_cycle;Signal;HPM_P1;HPM_P2
2022/09/09 00:01:36;;;;;;;5.43;4.65;;;15.40;99.90;;;;;;5050358;28;20096;-72
2022/09/09 00:04:11;;;;;;;5.65;4.05;;;15.50;99.90;;;;;;5026924;28;20506;-72
2022/09/09 00:07:04;;;;;;;7.80;4.18;;;15.50;99.90;;;;;;5050295;28;20020;-72
2022/09/09 00:09:51;;;;;;;5.20;3.83;;;15.50;99.90;;;;;;5029259;28;20033;-72
2022/09/09 00:12:29;;;;;;;4.72;3.38;;;17.20;99.90;;;;;;5049467;28;20068;-72
2022/09/09 00:15:01;;;;;;;4.70;3.83;;;15.40;99.90;;;;;;5050141;28;20025;-72
2022/09/09 00:17:46;;;;;;;3.45;3.08;;;15.40;99.90;;;;;;5050407;28;20040;-72
2022/09/09 00:20:19;;;;;;;5.45;3.63;;;16.70;99.90;;;;;;5049595;28;20048;-72
2022/09/09 00:22:55;;;;;;;3.38;3.00;;;15.50;99.90;;;;;;5050303;28;20021;-72
2022/09/09 00:25:34;;;;;;;4.45;2.88;;;15.50;99.90;;;;;;5050174;28;20056;-72
2022/09/09 00:27:59;;;;;;;6.00;3.40;;;15.60;99.90;;;;;;5050119;28;20464;-72
2022/09/09 00:30:31;;;;;;;3.03;2.83;;;15.70;99.90;;;;;;5049968;28;20057;-72
2022/09/09 00:33:11;;;;;;;7.63;2.80;;;15.60;99.90;;;;;;5050058;28;20021;-72
2022/09/09 00:35:40;;;;;;;3.45;2.83;;;15.60;99.90;;;;;;5049854;28;20029;-72
2022/09/09 00:38:15;;;;;;;6.22;2.90;;;15.60;99.90;;;;;;5044000;28;20037;-72
2022/09/09 00:40:52;;;;;;;5.65;3.38;;;15.70;99.90;;;;;;5041731;28;20021;-72
2022/09/09 00:43:26;;;;;;;4.32;3.20;;;15.80;99.90;;;;;;5049761;28;20079;-72
2022/09/09 00:46:09;;;;;;;4.35;3.00;;;15.50;99.90;;;;;;5049525;28;20096;-72
2022/09/09 00:48:54;;;;;;;6.95;3.25;;;15.60;99.90;;;;;;5050084;28;20359;-72
2022/09/09 00:51:34;;;;;;;3.70;3.05;;;15.50;99.90;;;;;;5049114;28;20028;-72
2022/09/09 00:54:10;;;;;;;3.78;2.78;;;15.40;99.90;;;;;;5049212;28;20107;-72
2022/09/09 00:57:10;;;;;;;4.72;2.47;;;15.30;99.90;;;;;;5049746;28;20021;-72
2022/09/09 00:59:57;;;;;;;3.85;2.85;;;15.30;99.90;;;;;;5049749;28;20443;-72
2022/09/09 01:02:43;;;;;;;6.07;2.55;;;15.20;99.90;;;;;;5047203;28;20106;-72
2022/09/09 01:05:18;;;;;;;3.45;2.33;;;15.10;99.90;;;;;;5049047;28;20442;-72
2022/09/09 01:07:48;;;;;;;4.15;2.92;;;15.00;99.90;;;;;;5048436;28;20355;-72
2022/09/09 01:10:27;;;;;;;3.35;2.20;;;14.90;99.90;;;;;;5028771;28;20036;-73
2022/09/09 01:12:55;;;;;;;4.47;2.47;;;15.00;99.90;;;;;;5047214;28;20749;-72
2022/09/09 01:15:28;;;;;;;3.42;1.95;;;14.90;99.90;;;;;;5049062;28;20108;-72
2022/09/09 01:18:10;;;;;;;4.65;2.10;;;14.80;99.90;;;;;;5048777;28;20200;-72
2022/09/09 01:20:55;;;;;;;6.00;2.17;;;14.90;99.90;;;;;;5049348;28;20063;-72
2022/09/09 01:23:42;;;;;;;5.65;2.40;;;14.80;99.90;;;;;;5044369;28;20496;-72
2022/09/09 01:26:28;;;;;;;4.82;2.85;;;14.80;99.90;;;;;;5039601;28;20044;-72
2022/09/09 01:28:54;;;;;;;2.25;1.85;;;14.80;99.90;;;;;;5048629;28;20021;-72
2022/09/09 01:31:28;;;;;;;3.35;2.20;;;14.60;99.90;;;;;;5048803;28;20094;-72
2022/09/09 01:33:54;;;;;;;;;;;14.60;99.90;;;;;;5047307;28;20445;-72
2022/09/09 01:36:35;;;;;;;2.42;2.05;;;14.60;99.90;;;;;;5048751;28;19955;-72
2022/09/09 01:39:01;;;;;;;4.10;2.65;;;14.60;99.90;;;;;;5042076;28;20033;-72
2022/09/09 01:41:27;;;;;;;2.67;1.73;;;14.50;99.90;;;;;;5048615;28;20025;-72
2022/09/09 01:43:54;;;;;;;2.88;2.25;;;14.50;99.90;;;;;;5048329;28;20028;-72
2022/09/09 01:46:22;;;;;;;6.93;2.78;;;14.40;99.90;;;;;;5048633;28;20028;-72
2022/09/09 01:48:49;;;;;;;4.22;2.13;;;14.40;99.90;;;;;;5048236;28;20104;-72
2022/09/09 01:51:15;;;;;;;7.28;3.10;;;14.20;99.90;;;;;;5048360;28;20024;-72
2022/09/09 01:53:43;;;;;;;2.97;2.67;;;14.30;99.90;;;;;;5048649;28;20359;-73
2022/09/09 01:56:27;;;;;;;3.20;2.40;;;14.40;99.90;;;;;;5047929;28;20099;-72
2022/09/09 01:59:11;;;;;;;4.00;2.60;;;14.30;99.90;;;;;;5047975;28;20037;-72
2022/09/09 02:01:45;;;;;;;6.60;2.95;;;14.30;99.90;;;;;;5048055;28;20394;-72
2022/09/09 02:04:34;;;;;;;4.22;2.83;;;14.30;99.90;;;;;;5047873;28;20349;-72
2022/09/09 02:07:00;;;;;;;3.88;3.47;;;14.10;99.90;;;;;;5039936;28;20071;-72
2022/09/09 02:09:29;;;;;;;3.35;2.20;;;14.30;99.90;;;;;;5032006;28;20020;-72
2022/09/09 02:12:14;;;;;;;3.00;2.70;;;14.10;99.90;;;;;;5016928;28;20095;-72
2022/09/09 02:14:44;;;;;;;4.97;3.00;;;14.10;99.90;;;;;;5045906;28;20046;-72
2022/09/09 02:17:11;;;;;;;3.45;2.60;;;14.20;99.90;;;;;;5047379;28;20474;-72
2022/09/09 02:19:42;;;;;;;3.15;2.83;;;14.10;99.90;;;;;;5048223;28;20021;-72
2022/09/09 02:22:07;;;;;;;4.28;2.85;;;14.10;99.90;;;;;;5047835;28;20056;-72
2022/09/09 02:24:36;;;;;;;3.47;2.97;;;14.10;99.90;;;;;;5048020;28;20056;-72
2022/09/09 02:27:06;;;;;;;5.63;3.42;;;14.00;99.90;;;;;;5048006;28;20032;-72
2022/09/09 02:29:34;;;;;;;7.32;4.03;;;14.00;99.90;;;;;;5048043;28;20425;-72
2022/09/09 02:32:05;;;;;;;6.75;3.13;;;14.00;99.90;;;;;;5047376;28;20027;-72
2022/09/09 02:34:35;;;;;;;6.43;3.50;;;14.00;99.90;;;;;;5046870;28;20025;-72
2022/09/09 02:37:05;;;;;;;4.80;3.10;;;13.90;99.90;;;;;;5048035;28;20080;-72
2022/09/09 02:39:31;;;;;;;4.40;3.63;;;13.90;99.90;;;;;;5039543;28;20032;-72
2022/09/09 02:41:56;;;;;;;4.25;3.03;;;13.80;99.90;;;;;;5047861;28;20033;-72
2022/09/09 02:44:22;;;;;;;5.40;2.85;;;13.90;99.90;;;;;;5047835;28;20120;-72
2022/09/09 02:47:21;;;;;;;6.07;3.50;;;13.90;99.90;;;;;;5047683;28;20075;-72
2022/09/09 02:50:11;;;;;;;4.43;3.28;;;13.90;99.90;;;;;;5048178;28;20021;-72
2022/09/09 02:52:55;;;;;;;4.45;3.90;;;13.90;99.90;;;;;;5047945;28;20339;-72
2022/09/09 02:55:29;;;;;;;4.88;4.05;;;13.80;99.90;;;;;;5040705;28;20078;-72
2022/09/09 02:57:56;;;;;;;5.80;3.53;;;13.90;99.90;;;;;;5046321;28;20040;-72
2022/09/09 03:00:28;;;;;;;3.95;3.33;;;13.90;99.90;;;;;;5046957;28;20048;-72
2022/09/09 03:02:54;;;;;;;6.38;3.92;;;14.90;99.90;;;;;;5047319;28;20114;-72
2022/09/09 03:05:21;;;;;;;4.70;3.92;;;13.70;99.90;;;;;;5043872;28;20032;-72
2022/09/09 03:07:47;;;;;;;5.82;4.25;;;13.80;99.90;;;;;;5045154;28;20107;-72
2022/09/09 03:10:13;;;;;;;6.22;3.92;;;13.70;99.90;;;;;;5045680;28;20025;-72
2022/09/09 03:12:39;;;;;;;4.68;3.38;;;13.80;99.90;;;;;;5047457;28;20041;-72
2022/09/09 03:15:06;;;;;;;4.50;3.55;;;13.70;99.90;;;;;;5046892;28;20025;-72
2022/09/09 03:17:31;;;;;;;5.55;3.70;;;13.80;99.90;;;;;;5047215;28;20203;-72
2022/09/09 03:19:58;;;;;;;5.15;4.47;;;13.50;99.90;;;;;;5047017;28;20513;-72
2022/09/09 03:22:25;;;;;;;6.88;3.53;;;13.70;99.90;;;;;;5046976;28;20040;-72
2022/09/09 03:24:51;;;;;;;7.45;4.32;;;13.70;99.90;;;;;;5047178;28;20017;-72
2022/09/09 03:27:19;;;;;;;4.97;3.70;;;13.80;99.90;;;;;;5051111;28;20036;-72
2022/09/09 03:29:45;;;;;;;9.90;4.18;;;13.80;99.90;;;;;;5051048;28;20025;-72
2022/09/09 03:32:10;;;;;;;5.07;3.20;;;13.70;99.90;;;;;;5049323;28;20100;-72
2022/09/09 03:34:38;;;;;;;6.10;4.00;;;13.70;99.90;;;;;;5051374;28;20044;-72
2022/09/09 03:37:04;;;;;;;6.63;3.60;;;13.80;99.90;;;;;;5038237;28;20394;-72
2022/09/09 03:39:30;;;;;;;6.85;4.80;;;13.70;99.90;;;;;;5032136;28;20489;-72
2022/09/09 03:41:55;;;;;;;5.47;4.35;;;13.80;99.90;;;;;;5050595;28;20104;-72
2022/09/09 03:44:21;;;;;;;5.63;3.90;;;13.70;99.90;;;;;;5050213;28;20025;-72
2022/09/09 03:46:46;;;;;;;5.65;4.45;;;13.60;99.90;;;;;;5050713;28;20051;-72
2022/09/09 03:49:12;;;;;;;8.43;4.10;;;13.80;99.90;;;;;;5050487;28;20036;-72
2022/09/09 03:51:38;;;;;;;5.93;4.38;;;13.80;99.90;;;;;;5050896;28;20111;-72
2022/09/09 03:54:05;;;;;;;7.30;4.32;;;13.90;99.90;;;;;;5050344;28;20025;-72
2022/09/09 03:56:31;;;;;;;11.18;4.32;;;14.10;99.90;;;;;;5049047;28;20100;-72
2022/09/09 03:58:57;;;;;;;6.85;4.13;;;14.10;99.90;;;;;;5050005;28;20100;-72
2022/09/09 04:01:22;;;;;;;6.63;4.55;;;14.10;99.90;;;;;;5050408;28;20130;-72
2022/09/09 04:03:48;;;;;;;5.22;3.78;;;14.20;99.90;;;;;;5050651;28;20104;-73
2022/09/09 04:06:14;;;;;;;5.55;4.75;;;14.20;99.90;;;;;;5046379;28;20116;-72
2022/09/09 04:08:41;;;;;;;6.45;4.25;;;14.30;99.90;;;;;;5050322;28;20099;-72
2022/09/09 04:11:07;;;;;;;8.35;4.65;;;14.30;99.90;;;;;;5049919;28;20077;-72
2022/09/09 04:13:34;;;;;;;7.10;4.20;;;14.30;99.90;;;;;;5049345;28;20111;-72
2022/09/09 04:16:01;;;;;;;5.53;4.40;;;14.40;99.90;;;;;;5049988;28;20025;-72
2022/09/09 04:18:30;;;;;;;6.53;4.63;;;14.40;99.90;;;;;;5049854;28;20036;-72
2022/09/09 04:20:57;;;;;;;5.90;4.85;;;14.50;99.90;;;;;;5049972;28;20021;-72
2022/09/09 04:23:24;;;;;;;7.57;4.82;;;14.50;99.90;;;;;;5049891;28;20041;-72
2022/09/09 04:25:54;;;;;;;6.28;4.30;;;14.50;99.90;;;;;;5049977;28;20063;-72
2022/09/09 04:28:21;;;;;;;8.60;4.93;;;14.50;99.90;;;;;;5049327;28;20056;-72
2022/09/09 04:30:47;;;;;;;5.40;4.03;;;14.50;99.90;;;;;;5049873;28;20070;-72
2022/09/09 04:33:13;;;;;;;7.88;4.95;;;14.30;99.90;;;;;;5049493;28;20033;-72
2022/09/09 04:35:39;;;;;;;6.20;4.03;;;14.50;99.90;;;;;;5040110;28;20018;-73
2022/09/09 04:38:08;;;;;;;10.68;4.18;;;14.60;99.90;;;;;;5031513;28;20102;-72
2022/09/09 04:40:34;;;;;;;6.32;3.92;;;14.60;99.90;;;;;;5049380;28;20449;-72
2022/09/09 04:43:01;;;;;;;5.20;4.05;;;14.60;99.90;;;;;;5049138;28;20100;-72
2022/09/09 04:45:26;;;;;;;6.72;3.67;;;14.50;99.90;;;;;;5049310;28;20029;-72
2022/09/09 04:47:53;;;;;;;6.40;4.18;;;14.60;99.90;;;;;;5049651;28;20032;-72
2022/09/09 04:50:18;;;;;;;5.88;4.15;;;14.70;99.90;;;;;;5049432;28;20104;-72
2022/09/09 04:52:44;;;;;;;5.13;3.28;;;14.80;99.90;;;;;;5049438;28;20029;-72
2022/09/09 04:55:10;;;;;;;7.25;3.90;;;14.80;99.90;;;;;;5049303;28;20037;-72
2022/09/09 04:57:35;;;;;;;7.60;3.45;;;14.80;99.90;;;;;;5049027;28;20032;-72
2022/09/09 05:00:03;;;;;;;6.32;3.17;;;14.80;99.90;;;;;;5049424;28;20047;-72
2022/09/09 05:02:30;;;;;;;8.20;3.53;;;14.90;99.90;;;;;;5049019;28;20033;-72
2022/09/09 05:04:55;;;;;;;5.65;3.28;;;14.90;99.90;;;;;;5049116;28;20021;-72
2022/09/09 05:07:21;;;;;;;7.10;3.40;;;15.00;99.90;;;;;;5040147;28;20714;-72
2022/09/09 05:09:49;;;;;;;6.40;3.63;;;15.00;99.90;;;;;;5047811;28;20477;-72
2022/09/09 05:12:16;;;;;;;7.60;3.55;;;15.30;99.90;;;;;;5048118;28;20039;-72
2022/09/09 05:14:42;;;;;;;8.40;4.28;;;15.00;99.90;;;;;;5049181;28;20029;-72
2022/09/09 05:17:08;;;;;;;7.72;3.83;;;15.10;99.90;;;;;;5047197;28;20064;-73
2022/09/09 05:19:33;;;;;;;8.27;4.00;;;15.10;99.90;;;;;;5049014;28;20414;-72
2022/09/09 05:22:00;;;;;;;9.20;4.07;;;16.30;99.90;;;;;;5048766;28;20100;-72
2022/09/09 05:24:25;;;;;;;6.90;3.63;;;15.00;99.90;;;;;;5047180;28;20025;-72
2022/09/09 05:26:51;;;;;;;9.30;4.32;;;15.00;99.90;;;;;;5044101;28;20498;-72
2022/09/09 05:29:19;;;;;;;6.28;3.13;;;14.90;99.90;;;;;;5037406;28;20025;-72
2022/09/09 05:31:45;;;;;;;9.05;4.07;;;15.10;99.90;;;;;;5046189;28;20039;-72
2022/09/09 05:34:11;;;;;;;9.15;4.53;;;15.10;99.90;;;;;;5039202;28;20509;-72
2022/09/09 05:36:37;;;;;;;6.25;3.72;;;14.80;99.90;;;;;;5017400;28;20030;-72
2022/09/09 05:39:03;;;;;;;12.73;3.88;;;15.10;99.90;;;;;;5028021;28;20545;-72
2022/09/09 05:41:29;;;;;;;8.20;4.45;;;15.20;99.90;;;;;;5028595;28;20115;-72
2022/09/09 05:43:55;;;;;;;8.75;3.75;;;15.00;99.90;;;;;;5028332;28;20045;-72
2022/09/09 05:46:23;;;;;;;12.02;3.80;;;15.10;99.90;;;;;;5028554;28;20032;-72
2022/09/09 05:48:51;;;;;;;7.82;4.25;;;15.00;99.90;;;;;;5028732;28;20029;-72
2022/09/09 05:51:20;;;;;;;10.23;4.20;;;15.00;99.90;;;;;;5028710;28;20207;-72
2022/09/09 05:53:46;;;;;;;5.10;3.67;;;15.00;99.90;;;;;;5043857;28;20439;-72
2022/09/09 05:56:18;;;;;;;9.05;4.40;;;15.00;99.90;;;;;;5048079;28;20122;-72
2022/09/09 05:58:44;;;;;;;7.47;3.72;;;15.10;99.90;;;;;;5034767;28;20041;-73
2022/09/09 06:01:16;;;;;;;8.93;4.18;;;15.00;99.90;;;;;;5041623;28;20038;-72
2022/09/09 06:03:43;;;;;;;6.55;2.88;;;15.00;99.90;;;;;;5046565;28;20027;-72
2022/09/09 06:06:11;;;;;;;8.80;3.47;;;15.10;99.90;;;;;;5026500;28;20021;-72
2022/09/09 06:08:39;;;;;;;12.38;3.83;;;15.00;99.90;;;;;;5024192;28;20109;-72
2022/09/09 06:11:11;;;;;;;7.18;3.55;;;15.00;99.90;;;;;;5028324;28;20183;-73
2022/09/09 06:13:38;;;;;;;5.85;3.53;;;15.10;99.90;;;;;;5034484;28;20049;-71
2022/09/09 06:16:15;;;;;;;7.30;5.20;;;15.00;99.90;;;;;;5027915;28;20025;-70
2022/09/09 06:18:41;;;;;;;9.52;4.05;;;15.30;99.90;;;;;;5030178;28;20029;-70
2022/09/09 06:21:11;;;;;;;9.82;3.92;;;15.30;99.90;;;;;;5032587;28;20021;-70
2022/09/09 06:23:40;;;;;;;9.80;4.72;;;15.40;99.90;;;;;;5032064;28;20010;-70
2022/09/09 06:26:24;;;;;;;8.05;4.15;;;15.50;99.90;;;;;;5045567;28;20475;-70
2022/09/09 06:28:52;;;;;;;9.80;5.35;;;15.50;99.90;;;;;;5030292;28;20302;-70
2022/09/09 06:31:23;;;;;;;9.95;4.32;;;15.60;99.90;;;;;;5028081;28;20033;-69
2022/09/09 06:33:53;;;;;;;7.93;3.83;;;15.70;99.90;;;;;;5026586;28;20443;-69
2022/09/09 06:36:23;;;;;;;6.63;3.50;;;15.50;99.90;;;;;;5029570;28;20033;-69
2022/09/09 06:38:49;;;;;;;11.77;3.35;;;15.70;99.90;;;;;;5027725;28;20195;-70
2022/09/09 06:41:18;;;;;;;12.60;4.32;;;15.80;99.90;;;;;;5029025;28;20124;-70
2022/09/09 06:43:44;;;;;;;11.07;3.30;;;16.10;99.90;;;;;;5025907;28;20037;-70
2022/09/09 06:46:13;;;;;;;10.10;3.13;;;15.60;99.90;;;;;;5025956;28;20470;-70
2022/09/09 06:48:42;;;;;;;11.32;3.15;;;16.20;99.90;;;;;;5036564;28;20022;-71
2022/09/09 06:51:10;;;;;;;10.02;2.92;;;15.60;99.90;;;;;;5025110;28;20167;-71
2022/09/09 06:53:37;;;;;;;8.73;3.80;;;15.70;99.90;;;;;;5026385;28;20025;-71
2022/09/09 06:56:27;;;;;;;8.30;4.07;;;15.70;99.90;;;;;;5026750;28;20104;-71
2022/09/09 06:58:54;;;;;;;11.65;3.38;;;15.70;99.90;;;;;;5023901;28;20036;-71
2022/09/09 07:01:25;;;;;;;10.90;3.88;;;15.70;99.90;;;;;;5030767;28;20052;-70
2022/09/09 07:03:52;;;;;;;5.57;2.95;;;15.70;99.90;;;;;;5041072;28;20350;-71
2022/09/09 07:06:23;;;;;;;11.60;3.42;;;15.70;99.90;;;;;;5035288;28;20544;-71
2022/09/09 07:08:57;;;;;;;8.73;3.38;;;15.80;99.90;;;;;;5036286;28;20463;-71
2022/09/09 07:11:28;;;;;;;11.63;3.85;;;15.90;99.90;;;;;;5040040;28;20048;-71
2022/09/09 07:13:54;;;;;;;7.45;2.72;;;16.00;99.90;;;;;;5041547;28;20441;-71
2022/09/09 07:16:24;;;;;;;6.05;2.38;;;16.00;99.90;;;;;;5032446;28;20463;-71
2022/09/09 07:18:50;;;;;;;7.28;3.08;;;16.70;99.90;;;;;;5025010;28;20564;-71
2022/09/09 07:21:16;;;;;;;7.97;3.78;;;16.10;99.90;;;;;;5032374;28;20431;-71
2022/09/09 07:23:42;;;;;;;10.48;3.38;;;16.00;99.90;;;;;;5041380;28;20087;-71
2022/09/09 07:26:11;;;;;;;8.55;3.55;;;16.20;99.90;;;;;;5050051;28;20025;-71
2022/09/09 07:28:37;;;;;;;5.95;2.97;;;16.20;99.90;;;;;;5050267;28;20079;-71
2022/09/09 07:31:04;;;;;;;11.30;3.53;;;16.40;99.90;;;;;;5050297;28;20021;-71
2022/09/09 07:33:33;;;;;;;9.82;3.65;;;16.50;99.90;;;;;;5049640;28;20143;-70
2022/09/09 07:36:07;;;;;;;9.18;3.50;;;16.40;99.90;;;;;;5041799;28;20071;-71
2022/09/09 07:38:45;;;;;;;9.10;3.00;;;16.60;99.90;;;;;;5043163;28;20041;-72
2022/09/09 07:41:12;;;;;;;6.93;3.90;;;16.60;99.90;;;;;;5049478;28;20025;-72
2022/09/09 07:43:39;;;;;;;13.93;4.78;;;17.20;99.90;;;;;;5048138;28;20035;-72
2022/09/09 07:46:06;;;;;;;9.35;3.33;;;16.90;99.90;;;;;;5040766;28;20032;-72
2022/09/09 07:48:32;;;;;;;7.47;3.42;;;17.10;99.90;;;;;;5031905;28;20056;-72
2022/09/09 07:51:11;;;;;;;9.27;3.95;;;17.10;99.90;;;;;;5034609;28;20047;-72
2022/09/09 07:53:38;;;;;;;10.25;2.75;;;17.30;99.90;;;;;;5034434;28;20021;-71
2022/09/09 07:56:12;;;;;;;7.63;2.80;;;17.40;99.90;;;;;;5030205;28;20104;-71
2022/09/09 07:58:39;;;;;;;9.13;2.38;;;17.60;99.90;;;;;;5045705;28;20065;-71
2022/09/09 08:01:32;;;;;;;6.88;2.83;;;17.50;99.90;;;;;;5036139;28;20406;-71
2022/09/09 08:04:02;;;;;;;7.30;3.28;;;17.70;99.90;;;;;;5035150;28;20029;-71
2022/09/09 08:06:30;;;;;;;5.15;2.28;;;17.80;99.90;;;;;;5037368;28;20494;-71
2022/09/09 08:08:56;;;;;;;11.93;3.13;;;17.70;99.90;;;;;;5035856;28;20546;-71
2022/09/09 08:11:24;;;;;;;8.80;2.03;;;17.80;99.90;;;;;;5034601;28;20057;-71
2022/09/09 08:13:51;;;;;;;7.07;2.67;;;17.70;99.90;;;;;;5038394;28;20476;-71
2022/09/09 08:16:22;;;;;;;7.75;3.13;;;17.80;99.90;;;;;;5030241;28;20359;-71
2022/09/09 08:18:50;;;;;;;6.25;2.92;;;17.80;99.90;;;;;;5022868;28;20076;-71
2022/09/09 08:21:18;;;;;;;8.18;2.38;;;17.80;99.90;;;;;;5030080;28;20079;-71
2022/09/09 08:23:46;;;;;;;6.85;2.45;;;18.60;99.90;;;;;;5033802;28;20033;-71
2022/09/09 08:26:14;;;;;;;6.85;2.28;;;18.00;99.90;;;;;;5049983;28;20099;-71
2022/09/09 08:28:41;;;;;;;7.38;2.78;;;17.90;99.90;;;;;;5050265;28;20526;-71
2022/09/09 08:31:12;;;;;;;7.25;2.22;;;17.90;99.90;;;;;;5050279;28;20057;-71
2022/09/09 08:33:38;;;;;;;6.32;2.25;;;18.00;99.90;;;;;;5049553;28;20440;-71
2022/09/09 08:36:05;;;;;;;6.15;2.70;;;17.70;99.90;;;;;;5050232;28;20024;-71
2022/09/09 08:38:31;;;;;;;5.60;2.05;;;18.00;99.90;;;;;;5049603;28;20092;-71
2022/09/09 08:41:25;;;;;;;8.80;2.22;;;17.90;99.90;;;;;;5049875;28;20050;-71
2022/09/09 08:44:00;;;;;;;7.47;2.13;;;17.80;99.90;;;;;;5049902;28;20035;-71
2022/09/09 08:46:37;;;;;;;7.90;2.00;;;17.90;99.90;;;;;;5049820;28;20017;-71
2022/09/09 08:49:25;;;;;;;6.75;2.13;;;17.80;99.90;;;;;;5046541;28;20053;-71
2022/09/09 08:51:53;;;;;;;8.95;1.90;;;18.00;99.90;;;;;;5049508;28;20385;-71
2022/09/09 08:54:18;;;;;;;10.75;2.28;;;17.90;99.90;;;;;;5049714;28;20079;-71
2022/09/09 08:56:44;;;;;;;6.38;2.00;;;17.90;99.90;;;;;;5050021;28;20430;-71
2022/09/09 08:59:15;;;;;;;8.98;1.70;;;17.90;99.90;;;;;;5049251;28;20116;-71
2022/09/09 09:02:03;;;;;;;7.63;1.48;;;18.00;99.90;;;;;;5049773;28;20017;-71
2022/09/09 09:05:00;;;;;;;8.05;1.55;;;18.00;99.90;;;;;;5049021;28;20466;-71
2022/09/09 09:07:41;;;;;;;3.70;1.45;;;18.10;99.90;;;;;;5049431;28;20021;-71
2022/09/09 09:10:25;;;;;;;7.95;1.75;;;18.30;99.90;;;;;;5049411;28;20039;-71
2022/09/09 09:12:51;;;;;;;6.00;1.70;;;18.60;99.90;;;;;;5049343;28;20047;-71
2022/09/09 09:15:21;;;;;;;5.82;1.30;;;19.00;99.90;;;;;;5048614;28;20021;-71
2022/09/09 09:17:48;;;;;;;3.72;1.65;;;18.80;99.90;;;;;;5036422;28;20037;-71
2022/09/09 09:20:15;;;;;;;6.32;1.40;;;18.50;99.90;;;;;;5041639;28;20041;-69
2022/09/09 09:22:56;;;;;;;6.75;2.05;;;18.50;99.90;;;;;;5047361;28;20099;-69
2022/09/09 09:25:29;;;;;;;6.13;1.70;;;19.60;99.90;;;;;;5042392;28;20034;-69
2022/09/09 09:28:05;;;;;;;6.28;1.52;;;18.40;99.90;;;;;;5029110;28;20018;-69
2022/09/09 09:30:45;;;;;;;6.82;1.50;;;18.30;99.90;;;;;;5028455;28;20029;-69
2022/09/09 09:33:40;;;;;;;9.30;1.50;;;18.30;99.90;;;;;;5038800;28;20064;-69
2022/09/09 09:36:09;;;;;;;4.93;1.27;;;18.30;99.90;;;;;;5018167;28;20427;-69
2022/09/09 09:38:36;;;;;;;3.92;1.13;;;18.20;99.90;;;;;;5029105;28;20767;-69
2022/09/09 09:41:02;;;;;;;5.13;1.33;;;18.20;99.90;;;;;;5029245;28;20017;-69
2022/09/09 09:43:40;;;;;;;6.38;1.85;;;18.20;99.90;;;;;;5028644;28;20113;-69
2022/09/09 09:46:23;;;;;;;2.88;1.40;;;18.50;99.90;;;;;;5027128;28;20394;-70
2022/09/09 09:49:05;;;;;;;4.75;1.63;;;18.60;99.90;;;;;;5028912;28;20057;-70
2022/09/09 09:51:32;;;;;;;6.28;1.67;;;18.70;99.90;;;;;;5035873;28;20029;-71
2022/09/09 09:54:09;;;;;;;3.58;1.75;;;18.90;99.90;;;;;;5038029;28;20025;-70
2022/09/09 09:56:35;;;;;;;6.38;1.98;;;19.10;99.90;;;;;;5035978;28;20087;-70
2022/09/09 09:59:01;;;;;;;10.43;2.08;;;19.30;99.90;;;;;;5028534;28;20045;-71
2022/09/09 10:01:29;;;;;;;4.60;1.10;;;19.30;99.90;;;;;;5025055;28;20537;-71
2022/09/09 10:03:59;;;;;;;6.50;1.23;;;19.30;99.90;;;;;;5028552;28;20095;-71
2022/09/09 10:06:31;;;;;;;7.28;1.85;;;19.20;99.90;;;;;;5028183;28;20120;-70
2022/09/09 10:08:56;;;;;;;6.32;1.58;;;18.60;99.90;;;;;;5036227;28;20032;-70
2022/09/09 10:11:43;;;;;;;4.25;1.30;;;19.30;99.90;;;;;;5039636;28;20335;-69
2022/09/09 10:14:35;;;;;;;8.25;1.90;;;18.90;99.90;;;;;;5031271;28;20083;-69
2022/09/09 10:17:09;;;;;;;5.97;1.85;;;18.80;99.90;;;;;;5024173;28;20431;-69
2022/09/09 10:19:37;;;;;;;6.57;1.48;;;19.40;99.90;;;;;;5027521;28;20044;-72
2022/09/09 10:22:27;;;;;;;7.63;1.10;;;18.70;99.90;;;;;;5024634;28;20419;-71
2022/09/09 10:25:24;;;;;;;6.35;1.40;;;18.50;99.90;;;;;;5042804;28;20029;-70
2022/09/09 10:28:04;;;;;;;4.75;2.03;;;18.50;99.90;;;;;;5047503;28;20029;-71
2022/09/09 10:30:30;;;;;;;5.82;1.98;;;18.60;99.90;;;;;;5039754;28;20022;-71
2022/09/09 10:33:09;;;;;;;7.78;1.75;;;18.80;99.90;;;;;;5034291;28;20105;-71
2022/09/09 10:36:02;;;;;;;7.38;1.25;;;19.00;99.90;;;;;;5032573;28;20032;-71
2022/09/09 10:38:40;;;;;;;9.27;1.83;;;18.90;99.90;;;;;;5027396;28;20080;-71
2022/09/09 10:41:36;;;;;;;6.70;1.35;;;18.90;99.90;;;;;;5026513;28;20655;-71
2022/09/09 10:44:24;;;;;;;8.52;1.70;;;18.90;99.90;;;;;;5025926;28;20108;-71
2022/09/09 10:47:01;;;;;;;6.63;1.45;;;18.90;99.90;;;;;;5028188;28;20327;-71
2022/09/09 10:49:33;;;;;;;5.28;1.40;;;18.80;99.90;;;;;;5027462;28;20026;-71
2022/09/09 10:52:10;;;;;;;10.02;2.38;;;18.80;99.90;;;;;;5027949;28;20009;-71
2022/09/09 10:54:57;;;;;;;7.05;1.15;;;18.90;99.90;;;;;;5028522;28;20037;-71
2022/09/09 10:57:36;;;;;;;5.00;1.30;;;19.10;99.90;;;;;;5037911;28;20270;-71
2022/09/09 11:00:06;;;;;;;3.60;1.27;;;19.00;99.90;;;;;;5029655;28;20017;-71
2022/09/09 11:02:34;;;;;;;5.45;1.25;;;19.10;99.90;;;;;;5038519;28;20029;-71
2022/09/09 11:05:40;;;;;;;7.20;1.40;;;18.90;99.90;;;;;;5027893;28;20459;-71
2022/09/09 11:08:13;;;;;;;4.25;1.20;;;18.90;99.90;;;;;;5039476;28;20029;-71
2022/09/09 11:10:48;;;;;;;9.32;1.20;;;18.80;99.90;;;;;;5033992;28;20036;-71
2022/09/09 11:13:38;;;;;;;8.32;1.20;;;18.80;99.90;;;;;;5026733;28;20073;-71
2022/09/09 11:16:12;;;;;;;4.03;1.20;;;18.60;99.90;;;;;;5023636;28;20071;-71
2022/09/09 11:18:41;;;;;;;6.70;1.70;;;18.50;99.90;;;;;;5027845;28;20049;-71
2022/09/09 11:21:12;;;;;;;7.35;1.88;;;18.40;99.90;;;;;;5027072;28;20032;-71
2022/09/09 11:23:43;;;;;;;4.97;1.42;;;18.40;99.90;;;;;;5031775;28;20474;-71
2022/09/09 11:26:18;;;;;;;11.27;1.90;;;18.40;99.90;;;;;;5047743;28;20021;-71
2022/09/09 11:29:30;;;;;;;5.38;1.70;;;18.70;99.90;;;;;;5047457;28;20530;-71
2022/09/09 11:32:18;;;;;;;5.93;1.50;;;19.00;99.90;;;;;;5047021;28;20043;-71
2022/09/09 11:35:02;;;;;;;7.05;2.78;;;19.20;99.90;;;;;;5046647;28;20428;-71
2022/09/09 11:38:04;;;;;;;8.38;2.00;;;19.20;99.90;;;;;;5028676;28;20091;-73
2022/09/09 11:40:32;;;;;;;5.47;1.70;;;19.20;99.90;;;;;;5007606;28;20236;-71
2022/09/09 11:43:12;;;;;;;4.70;2.08;;;19.30;99.90;;;;;;5029142;28;20025;-69
2022/09/09 11:45:40;;;;;;;5.03;1.65;;;19.40;99.90;;;;;;5030617;28;20458;-70
2022/09/09 11:48:45;;;;;;;4.70;1.33;;;19.50;99.90;;;;;;5039627;28;20406;-69
2022/09/09 11:51:13;;;;;;;1.50;1.20;;;19.50;99.90;;;;;;5030129;28;20052;-69
2022/09/09 11:53:53;;;;;;;5.88;1.30;;;19.40;99.90;;;;;;5037715;28;20017;-69
2022/09/09 11:56:43;;;;;;;4.85;1.50;;;19.30;99.90;;;;;;5036874;28;20187;-69
2022/09/09 11:59:31;;;;;;;5.07;1.30;;;19.20;99.90;;;;;;5030718;28;20030;-69
2022/09/09 12:02:01;;;;;;;6.70;1.92;;;19.20;99.90;;;;;;5035745;28;20029;-69
2022/09/09 12:04:34;;;;;;;3.55;1.48;;;19.30;99.90;;;;;;5045523;28;20031;-69
2022/09/09 12:07:03;;;;;;;4.55;1.63;;;19.70;99.90;;;;;;5042995;28;20049;-69
2022/09/09 12:09:37;;;;;;;5.57;1.25;;;19.80;99.90;;;;;;5030681;28;20035;-69
2022/09/09 12:12:27;;;;;;;5.30;1.58;;;20.00;99.90;;;;;;5033913;28;20017;-70
2022/09/09 12:15:07;;;;;;;3.85;1.20;;;20.00;99.90;;;;;;5030594;28;20429;-70
2022/09/09 12:17:54;;;;;;;5.45;3.38;;;19.80;99.90;;;;;;5040631;28;20459;-71
2022/09/09 12:20:23;;;;;;;3.22;0.82;;;19.70;99.90;;;;;;5044346;28;20028;-69
2022/09/09 12:23:00;;;;;;;4.57;1.42;;;19.60;99.90;;;;;;5033391;28;20075;-69
2022/09/09 12:26:05;;;;;;;5.18;0.95;;;19.50;99.90;;;;;;5049034;28;20025;-69
2022/09/09 12:28:57;;;;;;;5.20;1.13;;;19.50;99.90;;;;;;5033746;28;20072;-69
2022/09/09 12:31:39;;;;;;;4.47;1.45;;;19.40;99.90;;;;;;5034489;28;20115;-70
2022/09/09 12:34:13;;;;;;;4.75;1.30;;;19.30;99.90;;;;;;5050253;28;20040;-70
2022/09/09 12:36:40;;;;;;;3.92;1.48;;;19.50;99.90;;;;;;5050608;28;20326;-69
2022/09/09 12:39:19;;;;;;;3.85;1.38;;;19.80;99.90;;;;;;5050047;28;20393;-69
2022/09/09 12:41:57;;;;;;;3.78;1.20;;;19.90;99.90;;;;;;5044786;28;20037;-70
2022/09/09 12:44:24;;;;;;;6.43;1.85;;;20.20;99.90;;;;;;5042782;28;20021;-70
2022/09/09 12:46:52;;;;;;;3.33;1.00;;;20.20;99.90;;;;;;5044051;28;20473;-70
2022/09/09 12:49:28;;;;;;;5.85;1.58;;;20.30;99.90;;;;;;5041990;28;20051;-69
2022/09/09 12:51:57;;;;;;;3.63;1.50;;;20.30;99.90;;;;;;5046351;28;20031;-69
2022/09/09 12:54:23;;;;;;;5.65;1.77;;;20.00;99.90;;;;;;5037368;28;20025;-69
2022/09/09 12:56:49;;;;;;;4.30;1.52;;;19.40;99.90;;;;;;5040252;28;20021;-70
2022/09/09 12:59:39;;;;;;;5.50;1.40;;;19.60;99.90;;;;;;5039363;28;20123;-69
2022/09/09 13:02:26;;;;;;;5.00;1.40;;;19.70;99.90;;;;;;5033170;28;20135;-69
2022/09/09 13:04:53;;;;;;;4.95;1.17;;;20.00;99.90;;;;;;5043411;28;20470;-70
2022/09/09 13:07:21;;;;;;;3.75;1.20;;;20.20;99.90;;;;;;5045255;28;20016;-70
2022/09/09 13:09:49;;;;;;;5.93;1.85;;;19.40;99.90;;;;;;5040765;28;20520;-70
2022/09/09 13:12:22;;;;;;;5.28;2.35;;;19.20;99.90;;;;;;5043702;28;20032;-69
2022/09/09 13:14:51;;;;;;;7.57;2.03;;;19.20;99.90;;;;;;5030717;28;20036;-69